Time;durP1;ratioP1;P1;durP2;ratioP2;P2;SDS_P1;SDS_P2;PMS_P1;PMS_P2;Temp;Humidity;BMP_temperature;BMP_pressure;BME280_temperature;BME280_humidity;BME280_pressure;Samples;Min_cycle;Max_cycle;Signal;HPM_P1;HPM_P2
2022/10/08 00:01:04;;;;;;;20.65;12.65;;;;;;;11.17;78.63;100886.36;1741829;81;21064;-81
2022/10/08 00:03:35;;;;;;;18.92;12.23;;;;;;;11.15;78.44;100880.88;1741956;82;21592;-80
2022/10/08 00:06:12;;;;;;;22.13;10.25;;;;;;;11.12;78.46;100878.65;1723870;82;21067;-76
2022/10/08 00:08:41;;;;;;;19.42;9.58;;;;;;;11.08;78.51;100876.91;1726210;82;21025;-74
2022/10/08 00:11:12;;;;;;;15.48;10.45;;;;;;;11.04;78.67;100873.54;1742902;82;21651;-83
2022/10/08 00:13:40;;;;;;;21.70;11.78;;;;;;;10.98;78.81;100873.11;1743975;82;21171;-83
2022/10/08 00:16:15;;;;;;;18.50;10.13;;;;;;;10.92;78.93;100870.27;1723616;82;21055;-73
2022/10/08 00:18:44;;;;;;;29.10;10.85;;;;;;;10.88;79.11;100866.90;1722584;82;20991;-75
2022/10/08 00:21:15;;;;;;;26.75;10.72;;;;;;;10.86;79.32;100866.28;1735173;82;21048;-73
2022/10/08 00:23:43;;;;;;;23.57;11.48;;;;;;;10.87;79.47;100865.25;1741172;82;21134;-79
2022/10/08 00:26:10;;;;;;;22.32;10.18;;;;;;;10.88;79.61;100863.69;1721147;82;21240;-75
2022/10/08 00:28:37;;;;;;;19.85;9.88;;;;;;;10.89;79.57;100861.27;1722198;82;21024;-77
2022/10/08 00:31:11;;;;;;;20.72;8.95;;;;;;;10.86;79.64;100859.03;1741378;82;21027;-76
2022/10/08 00:33:38;;;;;;;24.55;10.40;;;;;;;10.84;79.74;100854.39;1712834;82;21052;-80
2022/10/08 00:36:08;;;;;;;25.43;10.13;;;;;;;10.82;79.78;100858.36;1711021;83;21167;-78
2022/10/08 00:38:34;;;;;;;20.88;9.88;;;;;;;10.77;79.86;100846.92;1710907;83;21078;-77
2022/10/08 00:41:01;;;;;;;15.05;9.30;;;;;;;10.73;79.93;100848.94;1712050;83;21098;-79
2022/10/08 00:43:48;;;;;;;26.62;11.50;;;;;;;10.68;80.11;100840.19;1712283;83;21592;-79
2022/10/08 00:46:32;;;;;;;23.30;10.40;;;;;;;10.67;80.34;100839.88;1711072;82;20975;-80
2022/10/08 00:49:10;;;;;;;23.80;11.38;;;;;;;10.68;80.55;100836.67;1708900;83;21111;-76
2022/10/08 00:51:45;;;;;;;22.85;11.25;;;;;;;10.70;80.61;100838.08;1694321;84;21167;-75
2022/10/08 00:54:11;;;;;;;18.90;12.07;;;;;;;10.73;80.75;100834.13;1703347;83;21025;-74
2022/10/08 00:56:39;;;;;;;24.67;11.85;;;;;;;10.74;80.72;100834.44;1711778;83;21025;-74
2022/10/08 00:59:10;;;;;;;18.77;12.33;;;;;;;10.73;80.65;100823.37;1686679;83;21006;-75
2022/10/08 01:01:41;;;;;;;32.15;12.98;;;;;;;10.70;80.75;100830.00;1674084;85;20963;-74
2022/10/08 01:04:06;;;;;;;21.97;13.03;;;;;;;10.67;80.84;100828.29;1695868;84;21843;-73
2022/10/08 01:07:13;;;;;;;25.68;12.45;;;;;;;10.64;80.91;100823.37;1692470;83;20983;-77
2022/10/08 01:09:59;;;;;;;20.57;13.45;;;;;;;10.62;81.01;100827.61;1701663;83;22281;-75
2022/10/08 01:12:34;;;;;;;24.10;15.30;;;;;;;10.64;81.04;100820.16;1699322;82;20940;-77
2022/10/08 01:15:14;;;;;;;30.12;16.97;;;;;;;10.68;81.03;100819.17;1682454;85;21002;-76
2022/10/08 01:18:00;;;;;;;29.32;16.35;;;;;;;10.69;80.91;100815.45;1688977;83;21056;-75
2022/10/08 01:20:50;;;;;;;25.60;16.80;;;;;;;10.67;80.80;100819.70;1712490;83;21026;-74
2022/10/08 01:23:52;;;;;;;30.80;16.17;;;;;;;10.64;80.67;100823.37;1688813;83;21023;-74
2022/10/08 01:26:51;;;;;;;30.75;16.12;;;;;;;10.58;80.65;100810.80;1681903;85;21046;-77
2022/10/08 01:29:35;;;;;;;38.30;16.07;;;;;;;10.48;80.63;100812.64;1699442;83;22222;-73
2022/10/08 01:32:06;;;;;;;29.72;15.53;;;;;;;10.39;80.67;100813.98;1705347;83;21703;-74
2022/10/08 01:34:47;;;;;;;28.38;15.98;;;;;;;10.33;80.95;100812.16;1682792;85;21051;-75
2022/10/08 01:37:19;;;;;;;23.95;14.28;;;;;;;10.28;81.10;100812.00;1682589;83;21524;-76
2022/10/08 01:39:45;;;;;;;20.50;11.83;;;;;;;10.29;81.31;100806.41;1711514;83;21085;-74
2022/10/08 01:42:12;;;;;;;21.62;14.75;;;;;;;10.31;81.27;100812.38;1665203;85;21658;-75
2022/10/08 01:44:47;;;;;;;30.05;15.72;;;;;;;10.32;81.21;100815.38;1682222;85;22246;-76
2022/10/08 01:47:19;;;;;;;26.05;13.95;;;;;;;10.28;80.88;100818.72;1678286;85;21070;-78
2022/10/08 01:49:51;;;;;;;20.88;11.48;;;;;;;10.21;80.81;100816.63;1691201;83;21016;-82
2022/10/08 01:52:22;;;;;;;19.30;10.32;;;;;;;10.16;80.96;100819.15;1705701;83;21091;-77
2022/10/08 01:54:49;;;;;;;17.10;8.60;;;;;;;10.10;81.09;100815.95;1684025;85;21071;-76
2022/10/08 01:57:16;;;;;;;37.80;11.70;;;;;;;10.02;81.08;100817.06;1636863;82;21262;-78
2022/10/08 01:59:49;;;;;;;19.85;13.32;;;;;;;9.97;81.33;100819.06;1680678;83;21621;-77
2022/10/08 02:02:21;;;;;;;33.65;15.08;;;;;;;9.95;81.51;100816.27;1720561;83;21116;-76
2022/10/08 02:04:52;;;;;;;27.30;14.13;;;;;;;9.91;81.56;100815.06;1693085;84;21044;-77
2022/10/08 02:07:23;;;;;;;26.30;15.00;;;;;;;9.90;81.66;100816.92;1693105;84;21580;-76
2022/10/08 02:09:52;;;;;;;29.37;16.05;;;;;;;9.93;81.72;100819.69;1728055;81;21046;-78
2022/10/08 02:12:21;;;;;;;27.35;14.75;;;;;;;9.95;81.74;100817.61;1710448;83;21611;-77
2022/10/08 02:14:51;;;;;;;39.70;17.62;;;;;;;9.94;81.65;100823.51;1720165;83;21043;-78
2022/10/08 02:17:45;;;;;;;40.10;22.00;;;;;;;9.87;81.30;100821.41;1710363;83;21103;-76
2022/10/08 02:20:27;;;;;;;;;;;;;;;9.77;81.30;100820.23;1703325;82;21687;-78
2022/10/08 02:23:31;;;;;;;26.05;14.07;;;;;;;9.64;81.59;100817.91;1711666;83;21162;-75
2022/10/08 02:26:00;;;;;;;33.67;16.42;;;;;;;9.56;81.65;100821.38;1710804;83;21051;-77
2022/10/08 02:28:53;;;;;;;27.98;15.10;;;;;;;9.51;82.12;100821.20;1732524;81;21004;-78
2022/10/08 02:31:45;;;;;;;18.90;15.25;;;;;;;9.52;82.23;100825.54;1693181;84;21066;-79
2022/10/08 02:34:36;;;;;;;21.87;13.62;;;;;;;9.53;82.34;100822.65;1707142;83;22183;-77
2022/10/08 02:37:10;;;;;;;25.27;16.17;;;;;;;9.53;82.66;100817.80;1706246;83;21810;-77
2022/10/08 02:39:40;;;;;;;26.95;15.38;;;;;;;9.53;82.93;100821.82;1710754;83;21196;-80
2022/10/08 02:42:10;;;;;;;21.45;13.08;;;;;;;9.51;83.06;100823.37;1658374;85;21111;-79
2022/10/08 02:44:48;;;;;;;36.98;18.65;;;;;;;9.47;83.32;100819.47;1683881;85;21055;-81
2022/10/08 02:47:18;;;;;;;23.80;17.52;;;;;;;9.45;83.57;100816.69;1683670;85;21594;-79
2022/10/08 02:49:52;;;;;;;25.80;17.12;;;;;;;9.42;83.81;100819.80;1729669;81;22289;-79
2022/10/08 02:52:19;;;;;;;28.73;17.57;;;;;;;9.44;83.95;100819.91;1680081;84;20984;-79
2022/10/08 02:54:47;;;;;;;22.87;17.35;;;;;;;9.46;83.71;100815.65;1707578;84;21064;-76
2022/10/08 02:57:27;;;;;;;22.20;17.67;;;;;;;9.46;83.76;100823.19;1707750;84;21128;-76
2022/10/08 02:59:53;;;;;;;31.70;16.93;;;;;;;9.45;83.72;100824.22;1717458;82;21067;-77
2022/10/08 03:02:37;;;;;;;32.70;20.02;;;;;;;9.43;83.61;100824.97;1680551;84;21087;-77
2022/10/08 03:05:05;;;;;;;25.02;17.02;;;;;;;9.36;83.46;100819.31;1707715;84;21071;-77
2022/10/08 03:07:32;;;;;;;33.38;19.27;;;;;;;9.30;83.54;100821.53;1707895;83;21123;-77
2022/10/08 03:10:04;;;;;;;29.55;16.75;;;;;;;9.23;83.73;100816.70;1680110;83;21144;-77
2022/10/08 03:12:32;;;;;;;31.20;17.13;;;;;;;9.17;83.88;100816.52;1713995;82;21044;-77
2022/10/08 03:15:00;;;;;;;32.63;19.90;;;;;;;9.15;84.31;100821.28;1738186;82;21533;-79
2022/10/08 03:17:38;;;;;;;41.80;22.58;;;;;;;9.18;84.74;100820.85;1736840;82;21092;-78
2022/10/08 03:20:07;;;;;;;26.80;18.40;;;;;;;9.18;84.90;100815.48;1723610;82;21075;-77
2022/10/08 03:22:35;;;;;;;31.48;19.17;;;;;;;9.18;85.06;100818.16;1721930;83;20984;-78
2022/10/08 03:25:02;;;;;;;32.95;19.12;;;;;;;9.21;85.27;100816.90;1721652;83;21072;-78
2022/10/08 03:27:29;;;;;;;30.15;19.20;;;;;;;9.16;85.36;100811.34;1720371;83;21664;-79
2022/10/08 03:29:56;;;;;;;34.92;22.07;;;;;;;9.15;85.66;100817.27;1709958;83;21584;-78
2022/10/08 03:32:23;;;;;;;26.45;16.95;;;;;;;9.14;85.78;100816.95;1726337;83;21507;-78
2022/10/08 03:34:51;;;;;;;29.35;17.50;;;;;;;9.12;85.92;100820.86;1700069;83;21058;-78
2022/10/08 03:37:19;;;;;;;25.97;16.40;;;;;;;9.06;86.11;100811.00;1726374;83;21097;-78
2022/10/08 03:39:46;;;;;;;24.67;16.12;;;;;;;9.04;86.51;100813.06;1729761;81;21066;-76
2022/10/08 03:42:12;;;;;;;31.60;17.45;;;;;;;9.01;86.64;100820.20;1725468;83;21596;-79
2022/10/08 03:44:40;;;;;;;27.55;18.05;;;;;;;9.04;87.04;100817.09;1701952;83;23500;-78
2022/10/08 03:47:06;;;;;;;28.23;16.07;;;;;;;9.10;87.26;100815.73;1698980;84;21002;-77
2022/10/08 03:49:33;;;;;;;37.70;17.55;;;;;;;9.16;87.33;100818.05;1708194;83;21787;-78
2022/10/08 03:52:00;;;;;;;31.48;15.78;;;;;;;9.17;87.32;100822.39;1689859;84;21100;-75
2022/10/08 03:54:27;;;;;;;26.65;18.48;;;;;;;9.16;87.44;100816.72;1691371;83;20991;-78
2022/10/08 03:56:53;;;;;;;22.80;15.38;;;;;;;9.15;87.57;100814.58;1690971;83;21064;-78
2022/10/08 03:59:20;;;;;;;28.00;15.25;;;;;;;9.15;87.69;100816.44;1709398;83;21175;-78
2022/10/08 04:01:46;;;;;;;31.15;17.07;;;;;;;9.12;87.94;100816.33;1663315;84;21577;-79
2022/10/08 04:04:13;;;;;;;35.25;19.40;;;;;;;9.11;88.17;100812.53;1695892;84;21271;-79
2022/10/08 04:06:39;;;;;;;35.78;19.00;;;;;;;9.13;88.53;100815.30;1696534;84;21137;-78
2022/10/08 04:09:09;;;;;;;33.35;19.05;;;;;;;9.18;88.58;100812.80;1680031;83;21657;-76
2022/10/08 04:11:35;;;;;;;23.77;14.75;;;;;;;9.24;88.60;100810.30;1688328;84;21084;-77
2022/10/08 04:14:02;;;;;;;29.35;14.78;;;;;;;9.26;88.56;100807.69;1692588;84;21517;-75
2022/10/08 04:16:30;;;;;;;22.58;14.13;;;;;;;9.26;88.47;100808.20;1692706;84;21115;-75
2022/10/08 04:18:56;;;;;;;24.70;14.80;;;;;;;9.18;88.80;100811.45;1713869;83;20946;-75
2022/10/08 04:21:24;;;;;;;26.68;15.35;;;;;;;9.07;89.37;100812.63;1692739;84;21072;-76
2022/10/08 04:23:51;;;;;;;19.87;12.03;;;;;;;9.04;90.06;100813.06;1693319;84;21124;-77
2022/10/08 04:26:17;;;;;;;29.77;13.58;;;;;;;9.02;90.84;100814.61;1694535;83;21076;-74
2022/10/08 04:28:44;;;;;;;20.17;11.65;;;;;;;9.07;91.37;100818.82;1717958;83;21257;-78
2022/10/08 04:31:16;;;;;;;26.02;11.25;;;;;;;9.13;91.63;100815.30;1686090;84;21523;-76
2022/10/08 04:33:45;;;;;;;21.73;13.00;;;;;;;9.17;91.94;100813.00;1692919;84;21546;-82
2022/10/08 04:36:14;;;;;;;17.00;10.03;;;;;;;9.18;92.15;100808.77;1696310;84;21695;-76
2022/10/08 04:38:43;;;;;;;19.52;12.58;;;;;;;9.23;92.40;100809.98;1691152;83;21097;-76
2022/10/08 04:41:12;;;;;;;16.05;9.68;;;;;;;9.29;92.50;100808.62;1692984;84;21651;-81
2022/10/08 04:43:40;;;;;;;21.73;10.58;;;;;;;9.35;92.57;100813.66;1690294;84;21110;-82
2022/10/08 04:46:08;;;;;;;23.77;14.40;;;;;;;9.41;92.69;100805.55;1693360;83;21091;-81
2022/10/08 04:48:34;;;;;;;21.97;14.98;;;;;;;9.44;92.42;100814.55;1690321;84;21658;-80
2022/10/08 04:51:03;;;;;;;33.15;19.95;;;;;;;9.50;92.42;100817.69;1686286;84;21047;-80
2022/10/08 04:53:30;;;;;;;37.90;20.30;;;;;;;9.55;91.98;100817.04;1696809;84;21148;-81
2022/10/08 04:55:56;;;;;;;25.72;17.75;;;;;;;9.60;91.91;100809.98;1696264;84;21039;-77
2022/10/08 04:58:25;;;;;;;35.95;22.87;;;;;;;9.66;91.61;100820.39;1692727;84;21072;-78
2022/10/08 05:00:52;;;;;;;32.08;20.80;;;;;;;9.61;90.86;100822.39;1667474;84;21150;-79
2022/10/08 05:03:19;;;;;;;24.98;15.53;;;;;;;9.61;90.95;100820.22;1652020;86;21011;-78
2022/10/08 05:05:47;;;;;;;29.32;14.28;;;;;;;9.63;90.90;100823.01;1653498;86;21004;-77
2022/10/08 05:08:13;;;;;;;19.75;12.25;;;;;;;9.68;91.11;100821.02;1675693;85;20999;-78
2022/10/08 05:10:47;;;;;;;17.82;11.95;;;;;;;9.76;91.18;100816.72;1644829;85;21070;-77
2022/10/08 05:13:16;;;;;;;23.80;12.20;;;;;;;9.83;91.19;100809.42;1653748;86;21540;-78
2022/10/08 05:15:43;;;;;;;22.45;14.38;;;;;;;9.85;90.93;100812.72;1653561;86;21074;-78
2022/10/08 05:18:10;;;;;;;19.32;11.30;;;;;;;9.89;91.02;100810.42;1663446;85;21157;-79
2022/10/08 05:20:38;;;;;;;19.40;12.40;;;;;;;9.94;90.92;100815.96;1668335;85;21042;-76
2022/10/08 05:23:04;;;;;;;17.40;11.65;;;;;;;9.96;90.90;100813.37;1653875;86;20979;-78
2022/10/08 05:25:32;;;;;;;72.53;45.12;;;;;;;10.01;90.91;100812.72;1653564;84;20995;-77
2022/10/08 05:27:58;;;;;;;27.42;17.35;;;;;;;10.08;90.80;100808.09;1672952;85;21063;-80
2022/10/08 05:30:25;;;;;;;22.82;12.05;;;;;;;10.13;90.58;100812.81;1670268;85;21237;-79
2022/10/08 05:32:52;;;;;;;13.75;10.50;;;;;;;10.11;90.39;100811.71;1657515;86;21058;-79
2022/10/08 05:35:18;;;;;;;18.12;10.50;;;;;;;10.14;90.49;100807.75;1628329;88;21057;-79
2022/10/08 05:37:45;;;;;;;18.98;11.45;;;;;;;10.14;90.41;100810.44;1661868;85;21134;-80
2022/10/08 05:40:12;;;;;;;19.80;10.35;;;;;;;10.13;90.52;100808.78;1644972;86;21038;-78
2022/10/08 05:42:38;;;;;;;13.75;8.63;;;;;;;10.13;90.64;100813.64;1629041;86;21118;-79
2022/10/08 05:45:07;;;;;;;18.32;9.58;;;;;;;10.14;90.70;100812.61;1672051;85;21050;-77
2022/10/08 05:47:33;;;;;;;13.35;9.20;;;;;;;10.12;90.72;100805.81;1627395;86;21578;-78
2022/10/08 05:50:00;;;;;;;10.40;9.25;;;;;;;10.07;90.80;100804.58;1654214;86;21744;-79
2022/10/08 05:52:26;;;;;;;9.45;7.08;;;;;;;10.05;91.04;100806.69;1644371;86;21048;-77
2022/10/08 05:54:52;;;;;;;13.72;7.83;;;;;;;10.05;91.23;100812.58;1627155;88;21129;-79
2022/10/08 05:57:19;;;;;;;15.72;9.50;;;;;;;10.02;91.35;100809.80;1665071;85;20982;-78
2022/10/08 05:59:47;;;;;;;11.60;7.83;;;;;;;10.01;91.57;100809.52;1693154;83;21068;-77
2022/10/08 06:02:13;;;;;;;11.48;8.03;;;;;;;10.04;91.73;100814.44;1705600;83;21063;-77
2022/10/08 06:04:41;;;;;;;12.78;8.15;;;;;;;10.06;91.88;100820.95;1697478;84;21036;-80
2022/10/08 06:07:07;;;;;;;15.70;8.33;;;;;;;10.07;91.99;100814.55;1672231;83;21096;-79
2022/10/08 06:09:33;;;;;;;15.60;8.25;;;;;;;10.13;92.03;100812.30;1688853;84;21131;-78
2022/10/08 06:12:00;;;;;;;10.65;8.05;;;;;;;10.21;92.04;100811.25;1681983;84;21180;-77
2022/10/08 06:14:26;;;;;;;14.47;8.10;;;;;;;10.26;92.01;100805.52;1691433;84;21581;-77
2022/10/08 06:16:53;;;;;;;11.48;7.92;;;;;;;10.32;91.92;100811.86;1698074;83;21526;-77
2022/10/08 06:19:21;;;;;;;13.90;8.13;;;;;;;10.40;91.84;100805.70;1701904;83;22281;-76
2022/10/08 06:21:48;;;;;;;13.95;7.62;;;;;;;10.48;91.89;100803.23;1683207;84;21057;-77
2022/10/08 06:24:17;;;;;;;8.55;7.62;;;;;;;10.59;91.68;100803.86;1679802;85;21070;-80
2022/10/08 06:26:44;;;;;;;13.10;8.55;;;;;;;10.67;91.45;100797.34;1683189;83;22169;-83
2022/10/08 06:29:14;;;;;;;18.70;8.48;;;;;;;10.77;91.50;100794.45;1705706;83;21077;-80
2022/10/08 06:31:41;;;;;;;9.60;8.53;;;;;;;10.89;91.24;100799.36;1692924;84;21264;-78
2022/10/08 06:34:07;;;;;;;16.70;10.70;;;;;;;11.00;90.90;100794.28;1692815;84;21350;-79
2022/10/08 06:36:38;;;;;;;12.35;9.20;;;;;;;11.04;90.51;100792.25;1699008;83;21033;-78
2022/10/08 06:39:09;;;;;;;11.35;8.25;;;;;;;11.12;90.30;100789.80;1707999;83;21064;-79
2022/10/08 06:41:39;;;;;;;10.68;7.50;;;;;;;11.20;90.24;100794.86;1694496;84;21123;-79
2022/10/08 06:44:07;;;;;;;14.60;8.20;;;;;;;11.30;89.84;100795.97;1679900;83;22445;-77
2022/10/08 06:46:34;;;;;;;16.20;7.65;;;;;;;11.35;89.27;100795.28;1715507;83;21061;-78
2022/10/08 06:49:02;;;;;;;13.85;8.68;;;;;;;11.42;88.91;100797.88;1687425;84;21086;-82
2022/10/08 06:51:29;;;;;;;18.95;8.45;;;;;;;11.48;88.67;100798.31;1696925;84;21071;-82
2022/10/08 06:53:56;;;;;;;18.20;9.18;;;;;;;11.57;88.67;100800.46;1696783;84;21058;-81
2022/10/08 06:56:24;;;;;;;12.03;8.53;;;;;;;11.65;88.33;100799.33;1698200;83;21162;-79
2022/10/08 06:58:51;;;;;;;10.93;8.30;;;;;;;11.70;87.64;100796.22;1707984;83;20985;-80
2022/10/08 07:01:22;;;;;;;13.08;7.92;;;;;;;11.74;87.10;100800.16;1692998;84;21070;-79
2022/10/08 07:03:57;;;;;;;15.10;8.18;;;;;;;11.75;86.83;100799.08;1693160;84;21565;-77
2022/10/08 07:06:24;;;;;;;12.18;7.33;;;;;;;11.83;86.94;100791.20;1693864;83;21072;-79
2022/10/08 07:08:53;;;;;;;8.85;7.62;;;;;;;11.93;86.94;100794.16;1708090;83;21180;-78
2022/10/08 07:11:21;;;;;;;10.03;7.80;;;;;;;12.03;86.27;100789.55;1694116;84;21044;-77
2022/10/08 07:13:47;;;;;;;12.00;7.17;;;;;;;12.11;86.16;100788.67;1694253;84;21083;-78
2022/10/08 07:16:19;;;;;;;12.98;7.58;;;;;;;12.21;86.04;100790.27;1693994;84;21076;-79
2022/10/08 07:18:47;;;;;;;7.80;6.35;;;;;;;12.32;85.78;100785.94;1676938;84;21613;-77
2022/10/08 07:21:15;;;;;;;10.32;6.20;;;;;;;12.43;85.37;100783.75;1694339;84;21866;-79
2022/10/08 07:23:42;;;;;;;14.75;6.95;;;;;;;12.54;84.73;100785.63;1694359;84;21088;-80
2022/10/08 07:26:15;;;;;;;13.05;8.05;;;;;;;12.63;84.13;100782.03;1668780;84;21048;-79
2022/10/08 07:28:49;;;;;;;;;;;;;;;12.70;83.24;100767.08;1706099;83;20969;-80
2022/10/08 07:31:19;;;;;;;11.28;6.97;;;;;;;12.77;82.78;100761.00;1668107;84;20194;-85
2022/10/08 07:33:46;;;;;;;20.60;5.92;;;;;;;12.83;82.42;100762.23;1666972;84;21782;-77
2022/10/08 07:36:15;;;;;;;12.13;6.15;;;;;;;12.95;82.42;100764.91;1692884;84;21519;-80
2022/10/08 07:38:42;;;;;;;12.65;6.42;;;;;;;13.05;81.93;100766.44;1692686;84;21095;-79
2022/10/08 07:41:10;;;;;;;10.05;5.37;;;;;;;13.16;81.32;100761.58;1692711;84;21151;-79
2022/10/08 07:43:41;;;;;;;10.45;6.42;;;;;;;13.27;81.00;100761.25;1692924;84;21743;-78
2022/10/08 07:46:09;;;;;;;9.40;5.53;;;;;;;13.35;80.28;100760.84;1692683;84;21101;-80
2022/10/08 07:48:37;;;;;;;9.98;5.00;;;;;;;13.43;80.21;100758.57;1696138;83;20975;-78
2022/10/08 07:51:12;;;;;;;13.20;5.10;;;;;;;13.54;79.62;100756.35;1691377;84;20997;-80
2022/10/08 07:53:39;;;;;;;5.72;4.55;;;;;;;13.65;78.82;100755.19;1666798;84;21052;-78
2022/10/08 07:56:06;;;;;;;7.70;4.78;;;;;;;13.74;77.93;100755.89;1692655;84;21096;-78
2022/10/08 07:58:33;;;;;;;6.47;5.03;;;;;;;13.84;77.50;100752.54;1696149;83;21258;-78
2022/10/08 08:01:02;;;;;;;16.23;5.97;;;;;;;14.00;76.94;100751.73;1692773;84;20997;-80
2022/10/08 08:03:29;;;;;;;27.80;12.88;;;;;;;14.10;76.53;100745.66;1693034;84;21088;-79
2022/10/08 08:06:08;;;;;;;7.10;5.00;;;;;;;14.22;76.00;100743.67;1693031;84;21029;-78
2022/10/08 08:08:36;;;;;;;12.58;5.25;;;;;;;14.30;72.56;100740.53;1658780;84;21069;-78
2022/10/08 08:11:03;;;;;;;9.58;4.60;;;;;;;14.35;72.16;100737.90;1692899;84;21557;-77
2022/10/08 08:13:31;;;;;;;7.55;3.77;;;;;;;14.40;71.65;100728.53;1692886;84;21111;-76
2022/10/08 08:16:01;;;;;;;11.68;3.87;;;;;;;14.47;72.03;100726.48;1693166;84;21108;-76
2022/10/08 08:18:32;;;;;;;13.90;4.33;;;;;;;14.57;71.38;100727.15;1696144;83;21004;-77
2022/10/08 08:21:05;;;;;;;11.55;3.87;;;;;;;14.67;71.19;100720.52;1694228;84;21072;-77
2022/10/08 08:23:35;;;;;;;8.33;4.22;;;;;;;14.75;69.90;100726.30;1694835;84;21146;-74
2022/10/08 08:26:04;;;;;;;6.12;4.12;;;;;;;14.84;69.45;100728.85;1692749;84;21553;-75
2022/10/08 08:28:30;;;;;;;5.17;3.42;;;;;;;14.90;68.75;100724.32;1693369;84;21043;-78
2022/10/08 08:31:19;;;;;;;7.25;4.35;;;;;;;14.98;68.26;100724.39;1692368;83;21675;-76
2022/10/08 08:33:53;;;;;;;8.28;3.98;;;;;;;15.04;66.75;100715.27;1692946;84;21060;-73
2022/10/08 08:36:23;;;;;;;15.48;3.60;;;;;;;15.11;66.23;100720.75;1671094;85;21108;-76
2022/10/08 08:38:50;;;;;;;8.60;4.00;;;;;;;15.18;65.73;100716.50;1647132;85;21064;-75
2022/10/08 08:41:37;;;;;;;5.80;3.12;;;;;;;15.23;65.22;100717.38;1671674;84;21108;-75
2022/10/08 08:44:11;;;;;;;6.50;3.27;;;;;;;15.26;63.58;100714.14;1671888;85;21064;-78
2022/10/08 08:46:41;;;;;;;6.30;3.08;;;;;;;15.34;62.72;100718.30;1671906;85;21361;-75
2022/10/08 08:49:27;;;;;;;7.50;3.90;;;;;;;15.42;61.44;100715.13;1671463;84;21374;-76
2022/10/08 08:51:55;;;;;;;7.95;3.45;;;;;;;15.46;60.99;100710.81;1677369;83;22063;-77
2022/10/08 08:54:22;;;;;;;4.42;2.90;;;;;;;15.50;61.30;100709.22;1673163;85;21141;-78
2022/10/08 08:56:50;;;;;;;6.62;3.70;;;;;;;15.58;61.51;100705.27;1671802;85;21080;-75
2022/10/08 08:59:26;;;;;;;5.50;3.35;;;;;;;15.65;60.89;100708.04;1679204;85;21065;-75
2022/10/08 09:01:58;;;;;;;6.60;3.47;;;;;;;15.74;60.71;100696.70;1645457;85;21524;-78
2022/10/08 09:04:39;;;;;;;10.25;3.33;;;;;;;15.81;60.65;100695.42;1676793;84;21054;-78
2022/10/08 09:07:09;;;;;;;8.78;4.12;;;;;;;15.88;60.49;100694.66;1679631;85;21241;-76
2022/10/08 09:09:39;;;;;;;7.70;4.35;;;;;;;15.97;60.33;100687.66;1663479;85;21173;-74
2022/10/08 09:12:23;;;;;;;7.75;4.70;;;;;;;16.04;60.08;100687.44;1641124;85;21222;-75
2022/10/08 09:14:56;;;;;;;7.25;3.98;;;;;;;16.12;60.07;100684.23;1665541;84;21189;-73
2022/10/08 09:17:33;;;;;;;9.98;4.42;;;;;;;16.13;59.14;100685.88;1679359;84;21046;-81
2022/10/08 09:20:00;;;;;;;5.60;4.65;;;;;;;16.13;59.14;100685.88;1628618;85;21049;-79
2022/10/08 09:22:30;;;;;;;16.40;5.33;;;;;;;16.17;59.36;100680.73;1669526;84;21168;-78
2022/10/08 09:25:00;;;;;;;8.93;3.65;;;;;;;16.23;58.98;100672.90;1669267;84;21162;-84
2022/10/08 09:27:53;;;;;;;7.85;3.55;;;;;;;16.29;58.90;100676.75;1663665;84;22362;-78
2022/10/08 09:30:43;;;;;;;8.03;3.65;;;;;;;16.35;57.61;100663.48;1689399;83;21107;-80
2022/10/08 09:33:21;;;;;;;7.45;3.35;;;;;;;16.43;56.92;100662.97;1691909;84;21004;-82
2022/10/08 09:35:51;;;;;;;9.90;3.60;;;;;;;16.55;56.57;100656.76;1687218;84;20985;-83
2022/10/08 09:38:26;;;;;;;9.60;4.20;;;;;;;16.61;56.09;100661.71;1690063;84;21135;-75
2022/10/08 09:41:17;;;;;;;6.90;2.85;;;;;;;16.63;56.01;100650.59;1690011;83;21324;-76
2022/10/08 09:43:44;;;;;;;4.97;3.05;;;;;;;16.69;55.45;100651.67;1681866;84;21996;-76
2022/10/08 09:46:29;;;;;;;10.55;3.75;;;;;;;16.74;55.05;100656.34;1696969;83;21005;-74
2022/10/08 09:48:56;;;;;;;8.43;3.95;;;;;;;16.80;53.97;100656.07;1694730;84;21097;-89
2022/10/08 09:51:24;;;;;;;11.45;4.30;;;;;;;16.85;52.55;100649.83;1694343;84;21032;-76
2022/10/08 09:53:53;;;;;;;12.23;3.08;;;;;;;16.84;53.02;100642.76;1695472;83;21839;-74
2022/10/08 09:56:27;;;;;;;5.58;2.90;;;;;;;16.90;52.87;100638.44;1690205;83;21111;-78
2022/10/08 09:58:57;;;;;;;;;;;;;;;16.96;53.09;100628.40;1681551;83;21051;-77
2022/10/08 10:01:24;;;;;;;8.18;3.05;;;;;;;17.08;53.28;100627.59;1670487;84;20199;-80
2022/10/08 10:03:56;;;;;;;8.15;2.95;;;;;;;17.21;53.26;100621.64;1676375;84;21066;-76
2022/10/08 10:06:36;;;;;;;9.77;4.97;;;;;;;17.33;53.32;100620.83;1646400;85;21928;-77
2022/10/08 10:09:27;;;;;;;20.15;9.05;;;;;;;17.43;51.47;100623.55;1692521;84;22081;-82
2022/10/08 10:12:18;;;;;;;8.93;3.12;;;;;;;17.45;51.48;100623.28;1682767;83;21049;-87
2022/10/08 10:14:56;;;;;;;9.90;4.70;;;;;;;17.43;49.76;100619.47;1678288;84;21062;-79
2022/10/08 10:17:54;;;;;;;2.45;2.22;;;;;;;17.44;49.41;100614.84;1680540;84;21222;-82
2022/10/08 10:20:33;;;;;;;7.67;3.92;;;;;;;17.43;48.83;100610.48;1654219;85;21153;-74
2022/10/08 10:23:18;;;;;;;7.12;3.00;;;;;;;17.41;49.54;100601.77;1676681;84;21564;-75
2022/10/08 10:25:58;;;;;;;6.05;3.20;;;;;;;17.44;50.24;100601.25;1683123;84;21069;-76
2022/10/08 10:28:42;;;;;;;10.10;3.42;;;;;;;17.53;50.27;100592.80;1672796;85;21153;-78
2022/10/08 10:31:13;;;;;;;7.12;3.22;;;;;;;17.63;50.18;100589.29;1705326;84;21085;-79
2022/10/08 10:34:00;;;;;;;14.98;4.45;;;;;;;17.74;50.12;100586.29;1683317;84;21419;-75
2022/10/08 10:36:31;;;;;;;10.00;3.98;;;;;;;17.85;49.80;100582.98;1679434;85;21053;-75
2022/10/08 10:39:22;;;;;;;4.87;2.92;;;;;;;17.90;49.83;100581.61;1679115;84;21035;-73
2022/10/08 10:42:19;;;;;;;7.92;2.67;;;;;;;17.99;49.85;100569.59;1642469;85;21546;-78
2022/10/08 10:44:57;;;;;;;7.30;3.20;;;;;;;18.14;49.83;100564.92;1695503;81;21190;-73
2022/10/08 10:47:28;;;;;;;6.97;3.10;;;;;;;18.28;49.67;100563.22;1679827;83;21192;-75
2022/10/08 10:49:54;;;;;;;7.97;2.90;;;;;;;18.44;48.86;100555.80;1653060;85;20979;-77
2022/10/08 10:52:47;;;;;;;6.60;3.30;;;;;;;18.53;47.92;100550.57;1681438;85;20983;-77
2022/10/08 10:55:40;;;;;;;11.45;6.62;;;;;;;18.57;48.15;100547.03;1664492;84;21011;-76
2022/10/08 10:58:30;;;;;;;12.30;5.25;;;;;;;18.69;48.01;100546.16;1675508;84;20988;-76
2022/10/08 11:01:28;;;;;;;3.98;2.33;;;;;;;18.79;46.62;100546.63;1663919;84;21147;-78
2022/10/08 11:04:33;;;;;;;7.58;2.67;;;;;;;18.92;45.97;100544.63;1693294;83;21035;-78
2022/10/08 11:07:11;;;;;;;5.12;2.40;;;;;;;19.10;45.65;100542.56;1680396;84;21019;-77
2022/10/08 11:09:45;;;;;;;5.58;2.37;;;;;;;19.14;43.36;100531.34;1688423;84;20925;-75
2022/10/08 11:12:49;;;;;;;3.45;2.83;;;;;;;19.09;43.36;100525.93;1667569;86;20885;-76
2022/10/08 11:15:30;;;;;;;4.80;2.85;;;;;;;19.13;43.63;100516.66;1678592;84;21091;-77
2022/10/08 11:18:36;;;;;;;7.83;3.10;;;;;;;19.29;43.14;100511.84;1690437;84;20954;-76
2022/10/08 11:21:24;;;;;;;11.65;5.35;;;;;;;19.41;43.09;100509.02;1683404;84;20982;-79
2022/10/08 11:24:21;;;;;;;5.47;3.02;;;;;;;19.58;42.95;100509.41;1680979;84;21447;-80
2022/10/08 11:27:10;;;;;;;6.47;3.42;;;;;;;19.67;42.52;100500.02;1681082;84;21011;-79
2022/10/08 11:29:44;;;;;;;5.03;3.30;;;;;;;19.83;42.27;100488.37;1672329;84;21263;-77
2022/10/08 11:32:13;;;;;;;11.25;3.90;;;;;;;19.89;41.39;100479.84;1663348;84;20885;-78
2022/10/08 11:34:44;;;;;;;8.88;2.83;;;;;;;19.91;41.79;100481.72;1687298;84;20944;-79
2022/10/08 11:37:35;;;;;;;8.90;6.15;;;;;;;19.96;42.00;100472.64;1670724;84;20918;-76
2022/10/08 11:40:29;;;;;;;6.22;4.80;;;;;;;20.05;42.16;100468.16;1684223;84;20901;-77
2022/10/08 11:43:35;;;;;;;5.47;3.12;;;;;;;20.08;41.82;100465.41;1684758;84;21154;-76
2022/10/08 11:46:28;;;;;;;5.45;2.20;;;;;;;20.06;42.24;100467.05;1720028;83;21429;-78